sensor_id;sensor_type;location;lat;lon;timestamp;pressure;altitude;pressure_sealevel;temperature;humidity
21449;BME280;10885;52.830;13.788;2023-08-20T05:45:41;101528.72;;;23.94;84.00
21449;BME280;10885;52.830;13.788;2023-08-20T05:50:47;101536.00;;;24.06;83.10
21449;BME280;10885;52.830;13.788;2023-08-20T05:55:50;101532.84;;;24.20;82.73
21449;BME280;10885;52.830;13.788;2023-08-20T06:00:55;101548.09;;;24.43;81.57
21449;BME280;10885;52.830;13.788;2023-08-20T06:05:58;101553.22;;;24.81;80.49
21449;BME280;10885;52.830;13.788;2023-08-20T06:11:06;101570.28;;;25.09;78.29
21449;BME280;10885;52.830;13.788;2023-08-20T06:16:08;101579.59;;;24.92;78.41
21449;BME280;10885;52.830;13.788;2023-08-20T06:21:16;101578.22;;;24.67;79.41
21449;BME280;10885;52.830;13.788;2023-08-20T06:26:18;101588.53;;;24.59;80.12
21449;BME280;10885;52.830;13.788;2023-08-20T06:31:22;101579.50;;;24.86;79.68
21449;BME280;10885;52.830;13.788;2023-08-20T06:36:25;101573.03;;;25.17;77.61
21449;BME280;10885;52.830;13.788;2023-08-20T06:41:28;101591.25;;;25.08;78.00
21449;BME280;10885;52.830;13.788;2023-08-20T09:59:37;101682.63;;;36.37;39.92
21449;BME280;10885;52.830;13.788;2023-08-20T10:04:42;101679.75;;;37.32;38.26
21449;BME280;10885;52.830;13.788;2023-08-20T10:09:46;101686.97;;;38.07;36.66
21449;BME280;10885;52.830;13.788;2023-08-20T10:14:49;101702.59;;;38.19;35.65
21449;BME280;10885;52.830;13.788;2023-08-20T10:19:53;101693.47;;;39.18;33.66
21449;BME280;10885;52.830;13.788;2023-08-20T10:24:56;101696.59;;;40.13;32.60
21449;BME280;10885;52.830;13.788;2023-08-20T10:30:00;101696.94;;;40.05;32.67
21449;BME280;10885;52.830;13.788;2023-08-20T10:35:04;101699.16;;;40.93;31.11
21449;BME280;10885;52.830;13.788;2023-08-20T10:40:07;101693.59;;;41.15;30.42
21449;BME280;10885;52.830;13.788;2023-08-20T10:45:10;101690.38;;;40.90;30.03
21449;BME280;10885;52.830;13.788;2023-08-20T10:50:17;101680.38;;;40.35;30.44
21449;BME280;10885;52.830;13.788;2023-08-20T10:55:23;101671.22;;;41.15;31.69
21449;BME280;10885;52.830;13.788;2023-08-20T11:00:26;101671.22;;;43.31;26.15
21449;BME280;10885;52.830;13.788;2023-08-20T11:05:31;101680.81;;;44.95;23.98
21449;BME280;10885;52.830;13.788;2023-08-20T11:10:35;101676.97;;;42.29;27.12
21449;BME280;10885;52.830;13.788;2023-08-20T11:15:37;101688.56;;;43.11;26.50
21449;BME280;10885;52.830;13.788;2023-08-20T11:20:41;101687.63;;;44.73;24.41
21449;BME280;10885;52.830;13.788;2023-08-20T11:25:43;101688.84;;;44.26;24.24
21449;BME280;10885;52.830;13.788;2023-08-20T11:30:46;101685.69;;;42.66;26.23
21449;BME280;10885;52.830;13.788;2023-08-20T11:35:50;101683.47;;;41.57;28.00
21449;BME280;10885;52.830;13.788;2023-08-20T11:40:53;101689.13;;;40.59;29.67
21449;BME280;10885;52.830;13.788;2023-08-20T11:45:56;101674.00;;;40.37;29.32
21449;BME280;10885;52.830;13.788;2023-08-20T11:50:59;101676.69;;;39.57;31.96
21449;BME280;10885;52.830;13.788;2023-08-20T11:56:03;101677.19;;;39.67;31.06
21449;BME280;10885;52.830;13.788;2023-08-20T12:01:07;101671.41;;;39.55;31.24
21449;BME280;10885;52.830;13.788;2023-08-20T12:06:20;101669.53;;;39.15;31.93
21449;BME280;10885;52.830;13.788;2023-08-20T12:11:26;101661.00;;;38.59;33.25
21449;BME280;10885;52.830;13.788;2023-08-20T12:16:29;101660.03;;;39.06;31.53
21449;BME280;10885;52.830;13.788;2023-08-20T12:21:32;101655.00;;;38.29;32.95
21449;BME280;10885;52.830;13.788;2023-08-20T12:26:36;101661.19;;;37.81;32.78
21449;BME280;10885;52.830;13.788;2023-08-20T12:31:39;101655.63;;;38.36;32.89
21449;BME280;10885;52.830;13.788;2023-08-20T12:36:42;101641.44;;;38.57;31.61
21449;BME280;10885;52.830;13.788;2023-08-20T12:41:44;101647.66;;;38.34;31.57
21449;BME280;10885;52.830;13.788;2023-08-20T12:46:47;101627.97;;;38.37;31.61
21449;BME280;10885;52.830;13.788;2023-08-20T12:51:50;101628.72;;;38.40;30.36
21449;BME280;10885;52.830;13.788;2023-08-20T12:56:53;101627.63;;;38.22;29.50
21449;BME280;10885;52.830;13.788;2023-08-20T13:01:55;101626.19;;;38.14;28.64
21449;BME280;10885;52.830;13.788;2023-08-20T13:06:59;101632.28;;;38.17;29.14
21449;BME280;10885;52.830;13.788;2023-08-20T13:12:02;101637.16;;;38.30;27.46
21449;BME280;10885;52.830;13.788;2023-08-20T13:17:08;101638.06;;;38.05;26.75
21449;BME280;10885;52.830;13.788;2023-08-20T13:22:12;101642.13;;;38.17;27.17
21449;BME280;10885;52.830;13.788;2023-08-20T13:27:15;101643.06;;;38.14;26.61
21449;BME280;10885;52.830;13.788;2023-08-20T13:32:17;101636.03;;;37.87;27.51
21449;BME280;10885;52.830;13.788;2023-08-20T13:37:20;101633.28;;;37.90;27.45
21449;BME280;10885;52.830;13.788;2023-08-20T13:42:22;101633.31;;;37.63;27.18
21449;BME280;10885;52.830;13.788;2023-08-20T13:47:25;101630.91;;;37.55;27.06
21449;BME280;10885;52.830;13.788;2023-08-20T13:52:28;101632.31;;;37.67;25.83
21449;BME280;10885;52.830;13.788;2023-08-20T13:57:30;101636.56;;;37.46;25.79
21449;BME280;10885;52.830;13.788;2023-08-20T14:02:33;101629.06;;;37.31;25.08
21449;BME280;10885;52.830;13.788;2023-08-20T14:07:36;101627.44;;;37.27;26.17
21449;BME280;10885;52.830;13.788;2023-08-20T14:12:39;101623.06;;;37.24;25.04
21449;BME280;10885;52.830;13.788;2023-08-20T14:17:43;101625.72;;;36.97;24.75
21449;BME280;10885;52.830;13.788;2023-08-20T14:22:46;101617.56;;;37.02;25.05
21449;BME280;10885;52.830;13.788;2023-08-20T14:27:48;101612.56;;;36.91;23.63
21449;BME280;10885;52.830;13.788;2023-08-20T14:32:51;101611.22;;;36.48;24.73
21449;BME280;10885;52.830;13.788;2023-08-20T14:37:54;101605.25;;;36.09;24.91
21449;BME280;10885;52.830;13.788;2023-08-20T14:42:57;101606.47;;;35.97;25.87
21449;BME280;10885;52.830;13.788;2023-08-20T14:48:00;101605.06;;;36.16;25.03
21449;BME280;10885;52.830;13.788;2023-08-20T14:53:03;101604.78;;;35.94;25.31
21449;BME280;10885;52.830;13.788;2023-08-20T14:58:05;101602.34;;;35.86;26.20
21449;BME280;10885;52.830;13.788;2023-08-20T15:03:08;101592.88;;;35.76;26.64
21449;BME280;10885;52.830;13.788;2023-08-20T15:08:11;101589.13;;;35.49;26.64
21449;BME280;10885;52.830;13.788;2023-08-20T15:13:13;101591.78;;;34.77;27.19
21449;BME280;10885;52.830;13.788;2023-08-20T15:18:16;101596.59;;;34.58;27.39
21449;BME280;10885;52.830;13.788;2023-08-20T15:23:19;101591.84;;;34.34;27.49
21449;BME280;10885;52.830;13.788;2023-08-20T15:28:23;101591.00;;;33.86;28.30
21449;BME280;10885;52.830;13.788;2023-08-20T15:33:28;101585.66;;;33.40;29.28
21449;BME280;10885;52.830;13.788;2023-08-20T15:38:31;101579.22;;;33.02;30.09
21449;BME280;10885;52.830;13.788;2023-08-20T15:43:33;101574.69;;;33.08;30.52
21449;BME280;10885;52.830;13.788;2023-08-20T15:48:36;101571.78;;;33.24;31.12
21449;BME280;10885;52.830;13.788;2023-08-20T15:53:39;101582.53;;;33.15;30.86
21449;BME280;10885;52.830;13.788;2023-08-20T15:58:41;101574.94;;;32.90;31.87
21449;BME280;10885;52.830;13.788;2023-08-20T16:03:44;101580.00;;;33.07;31.88
21449;BME280;10885;52.830;13.788;2023-08-20T16:08:47;101580.25;;;32.90;31.29
21449;BME280;10885;52.830;13.788;2023-08-20T16:13:50;101580.56;;;32.70;31.66
21449;BME280;10885;52.830;13.788;2023-08-20T16:18:52;101579.13;;;32.46;32.10
21449;BME280;10885;52.830;13.788;2023-08-20T16:23:55;101574.41;;;31.98;32.77
21449;BME280;10885;52.830;13.788;2023-08-20T16:28:58;101575.50;;;31.77;33.09
21449;BME280;10885;52.830;13.788;2023-08-20T16:34:00;101577.47;;;31.57;33.16
21449;BME280;10885;52.830;13.788;2023-08-20T16:39:03;101572.38;;;31.37;33.20
21449;BME280;10885;52.830;13.788;2023-08-20T16:44:06;101580.56;;;31.03;33.31
21449;BME280;10885;52.830;13.788;2023-08-20T16:49:08;101585.16;;;30.68;34.78
21449;BME280;10885;52.830;13.788;2023-08-20T16:54:11;101597.69;;;30.26;38.36
21449;BME280;10885;52.830;13.788;2023-08-20T16:59:14;101601.31;;;29.91;39.52
21449;BME280;10885;52.830;13.788;2023-08-20T17:04:17;101598.69;;;29.67;40.03
21449;BME280;10885;52.830;13.788;2023-08-20T17:09:20;101597.81;;;29.48;40.54
21449;BME280;10885;52.830;13.788;2023-08-20T17:14:23;101605.72;;;29.31;40.73
21449;BME280;10885;52.830;13.788;2023-08-20T17:19:27;101605.72;;;29.12;40.82
21449;BME280;10885;52.830;13.788;2023-08-20T17:24:29;101603.94;;;28.94;41.24
21449;BME280;10885;52.830;13.788;2023-08-20T17:29:32;101611.78;;;28.79;41.92
21449;BME280;10885;52.830;13.788;2023-08-20T17:34:35;101611.75;;;28.62;42.43
21449;BME280;10885;52.830;13.788;2023-08-20T17:39:38;101609.06;;;28.48;43.07
21449;BME280;10885;52.830;13.788;2023-08-20T17:44:40;101608.09;;;28.29;42.33
21449;BME280;10885;52.830;13.788;2023-08-20T17:49:43;101614.09;;;28.07;42.73
21449;BME280;10885;52.830;13.788;2023-08-20T17:54:46;101615.69;;;27.80;43.98
21449;BME280;10885;52.830;13.788;2023-08-20T17:59:48;101612.84;;;27.55;42.30
21449;BME280;10885;52.830;13.788;2023-08-20T18:04:51;101631.22;;;27.51;42.81
21449;BME280;10885;52.830;13.788;2023-08-20T18:09:54;101628.41;;;27.31;43.52
21449;BME280;10885;52.830;13.788;2023-08-20T18:14:56;101637.88;;;27.10;44.05
21449;BME280;10885;52.830;13.788;2023-08-20T18:19:59;101636.72;;;26.90;44.66
21449;BME280;10885;52.830;13.788;2023-08-20T18:25:02;101646.22;;;26.77;43.74
21449;BME280;10885;52.830;13.788;2023-08-20T18:30:06;101649.59;;;26.65;44.29
21449;BME280;10885;52.830;13.788;2023-08-20T18:35:10;101657.25;;;26.50;45.40
21449;BME280;10885;52.830;13.788;2023-08-20T18:40:13;101668.53;;;26.43;46.29
21449;BME280;10885;52.830;13.788;2023-08-20T18:45:16;101679.53;;;26.18;48.06
21449;BME280;10885;52.830;13.788;2023-08-20T18:50:19;101679.16;;;25.92;50.01
21449;BME280;10885;52.830;13.788;2023-08-20T18:55:21;101682.47;;;25.79;49.67
21449;BME280;10885;52.830;13.788;2023-08-20T19:00:24;101693.59;;;25.66;48.46
21449;BME280;10885;52.830;13.788;2023-08-20T19:05:31;101696.94;;;25.58;46.28
21449;BME280;10885;52.830;13.788;2023-08-20T19:10:34;101695.28;;;25.62;45.99
21449;BME280;10885;52.830;13.788;2023-08-20T19:15:47;101702.19;;;25.58;47.57
21449;BME280;10885;52.830;13.788;2023-08-20T19:20:52;101716.97;;;25.55;50.78
21449;BME280;10885;52.830;13.788;2023-08-20T19:25:55;101716.81;;;25.47;55.28
21449;BME280;10885;52.830;13.788;2023-08-20T19:30:57;101721.94;;;25.39;57.24
21449;BME280;10885;52.830;13.788;2023-08-20T19:36:00;101718.28;;;25.31;59.53
21449;BME280;10885;52.830;13.788;2023-08-20T19:41:03;101719.03;;;25.26;61.60
21449;BME280;10885;52.830;13.788;2023-08-20T19:46:06;101722.47;;;25.21;64.66
21449;BME280;10885;52.830;13.788;2023-08-20T19:51:08;101721.72;;;25.29;65.47
21449;BME280;10885;52.830;13.788;2023-08-20T19:56:11;101719.13;;;25.30;65.83
21449;BME280;10885;52.830;13.788;2023-08-20T20:01:14;101723.09;;;25.10;66.79
21449;BME280;10885;52.830;13.788;2023-08-20T20:11:19;101734.84;;;24.86;68.06
21449;BME280;10885;52.830;13.788;2023-08-20T20:16:22;101738.13;;;24.77;69.40
21449;BME280;10885;52.830;13.788;2023-08-20T20:21:25;101740.53;;;24.68;70.63
21449;BME280;10885;52.830;13.788;2023-08-20T20:26:28;101736.88;;;24.60;71.20
21449;BME280;10885;52.830;13.788;2023-08-20T20:31:31;101738.25;;;24.44;72.07
21449;BME280;10885;52.830;13.788;2023-08-20T20:36:33;101735.38;;;24.32;72.55
21449;BME280;10885;52.830;13.788;2023-08-20T20:41:36;101754.75;;;24.05;74.26
21449;BME280;10885;52.830;13.788;2023-08-20T20:46:39;101749.31;;;23.97;74.37
21449;BME280;10885;52.830;13.788;2023-08-20T20:51:41;101741.16;;;23.85;74.78
21449;BME280;10885;52.830;13.788;2023-08-20T20:56:44;101742.53;;;23.71;76.61
21449;BME280;10885;52.830;13.788;2023-08-20T21:01:47;101737.94;;;23.60;77.07
21449;BME280;10885;52.830;13.788;2023-08-20T21:06:49;101739.47;;;23.54;77.26
21449;BME280;10885;52.830;13.788;2023-08-20T21:11:52;101748.16;;;23.53;76.66
21449;BME280;10885;52.830;13.788;2023-08-20T21:16:55;101746.28;;;23.47;76.52
21449;BME280;10885;52.830;13.788;2023-08-20T21:21:58;101741.75;;;23.41;76.90
21449;BME280;10885;52.830;13.788;2023-08-20T21:27:03;101750.47;;;23.42;76.64
21449;BME280;10885;52.830;13.788;2023-08-20T21:32:06;101745.09;;;23.36;76.57
21449;BME280;10885;52.830;13.788;2023-08-20T21:37:09;101753.81;;;23.36;76.93
21449;BME280;10885;52.830;13.788;2023-08-20T21:42:12;101759.66;;;23.28;76.77
21449;BME280;10885;52.830;13.788;2023-08-20T21:47:22;101755.13;;;23.22;75.08
21449;BME280;10885;52.830;13.788;2023-08-20T21:52:25;101755.97;;;23.21;77.21
21449;BME280;10885;52.830;13.788;2023-08-20T21:57:29;101754.88;;;23.14;77.20
